Time;durP1;ratioP1;P1;durP2;ratioP2;P2;SDS_P1;SDS_P2;PMS_P1;PMS_P2;Temp;Humidity;BMP_temperature;BMP_pressure;BME280_temperature;BME280_humidity;BME280_pressure;Samples;Min_cycle;Max_cycle;Signal;HPM_P1;HPM_P2
2022/09/30 00:01:41;;;;;;;0.82;0.40;;;14.60;99.90;;;;;;6280831;22;20500;-79
2022/09/30 00:04:13;;;;;;;2.08;0.47;;;14.70;99.90;;;;;;6307920;22;20082;-79
2022/09/30 00:06:38;;;;;;;0.32;0.32;;;14.70;99.90;;;;;;6308239;22;19996;-79
2022/09/30 00:09:04;;;;;;;0.70;0.38;;;14.70;99.90;;;;;;6280614;22;20086;-79
2022/09/30 00:11:33;;;;;;;0.95;0.30;;;14.70;99.90;;;;;;6308108;22;20006;-80
2022/09/30 00:14:00;;;;;;;2.13;0.40;;;14.60;99.90;;;;;;6308003;22;19999;-80
2022/09/30 00:16:29;;;;;;;0.73;0.40;;;14.60;99.90;;;;;;6308121;22;20003;-80
2022/09/30 00:18:56;;;;;;;2.47;0.35;;;14.60;99.90;;;;;;6307808;22;20011;-80
2022/09/30 00:21:22;;;;;;;0.35;0.35;;;14.60;99.90;;;;;;6280398;22;19999;-78
2022/09/30 00:23:48;;;;;;;0.30;0.30;;;14.50;99.90;;;;;;6307520;22;19999;-79
2022/09/30 00:26:18;;;;;;;0.38;0.30;;;14.50;99.90;;;;;;6280396;22;20472;-79
2022/09/30 00:28:45;;;;;;;0.30;0.30;;;14.50;99.90;;;;;;6307636;22;20439;-79
2022/09/30 00:31:13;;;;;;;2.17;0.30;;;14.50;99.90;;;;;;6307825;22;20323;-79
2022/09/30 00:33:39;;;;;;;0.38;0.30;;;14.50;99.90;;;;;;6307811;22;20052;-79
2022/09/30 00:36:05;;;;;;;1.40;0.50;;;14.50;99.90;;;;;;6307777;22;20078;-79
2022/09/30 00:38:31;;;;;;;0.50;0.20;;;14.50;99.90;;;;;;6307879;22;20000;-80
2022/09/30 00:40:58;;;;;;;0.47;0.20;;;14.50;99.90;;;;;;6280354;22;20014;-80
2022/09/30 00:43:52;;;;;;;0.50;0.50;;;14.40;99.90;;;;;;6280295;22;20068;-80
2022/09/30 00:46:38;;;;;;;0.30;0.30;;;14.30;99.90;;;;;;6307572;22;20093;-78
2022/09/30 00:49:14;;;;;;;0.55;0.40;;;14.30;99.90;;;;;;6307755;22;20078;-79
2022/09/30 00:51:44;;;;;;;0.40;0.40;;;14.40;99.90;;;;;;6307674;22;20010;-79
2022/09/30 00:54:15;;;;;;;0.40;0.40;;;14.40;99.90;;;;;;6280158;22;20003;-79
2022/09/30 00:56:46;;;;;;;0.73;0.40;;;14.40;99.90;;;;;;6307694;22;20007;-79
2022/09/30 00:59:30;;;;;;;2.08;0.30;;;14.40;99.90;;;;;;6307517;22;20033;-79
2022/09/30 01:01:56;;;;;;;0.30;0.30;;;14.40;99.90;;;;;;6307326;22;20396;-79
2022/09/30 01:04:25;;;;;;;0.30;0.30;;;14.40;99.90;;;;;;6307555;22;20003;-79
2022/09/30 01:06:51;;;;;;;2.25;0.50;;;14.30;99.90;;;;;;6279691;22;20430;-79
2022/09/30 01:09:18;;;;;;;0.35;0.35;;;14.30;99.90;;;;;;6280149;22;20053;-80
2022/09/30 01:11:45;;;;;;;0.45;0.45;;;14.30;99.90;;;;;;6307350;22;20003;-79
2022/09/30 01:14:12;;;;;;;0.32;0.32;;;14.40;99.90;;;;;;6307387;22;20002;-79
2022/09/30 01:17:26;;;;;;;0.75;0.40;;;14.40;99.90;;;;;;6307447;22;20025;-79
2022/09/30 01:20:24;;;;;;;0.43;0.40;;;14.30;99.90;;;;;;6197637;22;20005;-79
2022/09/30 01:23:08;;;;;;;2.13;0.40;;;14.40;99.90;;;;;;6279856;22;20099;-79
2022/09/30 01:26:02;;;;;;;1.42;0.40;;;14.40;99.90;;;;;;6280059;22;20003;-80
2022/09/30 01:29:06;;;;;;;0.63;0.43;;;14.40;99.90;;;;;;6307376;22;20000;-80
2022/09/30 01:31:55;;;;;;;0.98;0.55;;;14.50;99.90;;;;;;6280179;22;20137;-79
2022/09/30 01:34:41;;;;;;;0.47;0.47;;;14.50;99.90;;;;;;6280038;22;19999;-80
2022/09/30 01:37:38;;;;;;;1.92;0.50;;;14.60;99.90;;;;;;6279975;22;20056;-79
2022/09/30 01:40:44;;;;;;;0.63;0.40;;;14.60;99.90;;;;;;6279759;22;20086;-79
2022/09/30 01:43:30;;;;;;;0.47;0.43;;;14.70;99.90;;;;;;6239074;22;20078;-80
2022/09/30 01:46:02;;;;;;;1.13;0.52;;;14.70;99.90;;;;;;6307325;22;20008;-80
2022/09/30 01:48:27;;;;;;;0.82;0.40;;;14.60;99.90;;;;;;6307393;22;20547;-80
2022/09/30 01:51:03;;;;;;;0.52;0.52;;;14.60;99.90;;;;;;6279805;22;20003;-79
2022/09/30 01:53:58;;;;;;;0.65;0.50;;;14.60;99.90;;;;;;6307106;22;20078;-80
2022/09/30 01:56:41;;;;;;;1.70;0.80;;;14.60;99.90;;;;;;6307213;22;20004;-79
2022/09/30 01:59:28;;;;;;;0.60;0.40;;;14.60;99.90;;;;;;6307187;22;20090;-80
2022/09/30 02:02:26;;;;;;;2.20;0.52;;;14.60;99.90;;;;;;6306872;22;19999;-79
2022/09/30 02:04:58;;;;;;;2.38;0.70;;;14.60;99.90;;;;;;6300945;22;20007;-79
2022/09/30 02:07:42;;;;;;;1.50;0.80;;;14.50;99.90;;;;;;6279788;22;20004;-80
2022/09/30 02:10:33;;;;;;;0.50;0.50;;;14.50;99.90;;;;;;6307144;22;20086;-80
2022/09/30 02:13:17;;;;;;;1.83;0.80;;;14.50;99.90;;;;;;6307029;22;20003;-79
2022/09/30 02:15:58;;;;;;;0.80;0.70;;;14.50;99.90;;;;;;6279753;22;20090;-79
2022/09/30 02:18:41;;;;;;;0.95;0.73;;;14.40;99.90;;;;;;6280648;22;20031;-79
2022/09/30 02:21:09;;;;;;;1.67;0.70;;;14.50;99.90;;;;;;6309120;22;20007;-80
2022/09/30 02:23:39;;;;;;;0.77;0.77;;;14.50;99.90;;;;;;6281530;22;20006;-80
2022/09/30 02:26:15;;;;;;;1.85;0.80;;;14.40;99.90;;;;;;6309151;22;20070;-79
2022/09/30 02:28:46;;;;;;;1.05;0.68;;;14.40;99.90;;;;;;6281694;22;20048;-79
2022/09/30 02:31:14;;;;;;;2.90;0.65;;;14.50;99.90;;;;;;6309076;22;20054;-79
2022/09/30 02:33:55;;;;;;;4.30;0.80;;;14.50;99.90;;;;;;6308856;22;20003;-80
2022/09/30 02:36:39;;;;;;;1.08;0.63;;;14.50;99.90;;;;;;6281760;22;20011;-79
2022/09/30 02:39:14;;;;;;;0.88;0.73;;;14.50;99.90;;;;;;6308778;22;20000;-79
2022/09/30 02:41:54;;;;;;;2.00;0.95;;;14.50;99.90;;;;;;6308980;22;20010;-80
2022/09/30 02:44:21;;;;;;;1.27;0.80;;;14.50;99.90;;;;;;6309022;22;20411;-80
2022/09/30 02:46:59;;;;;;;1.73;0.90;;;14.40;99.90;;;;;;6281448;22;20331;-80
2022/09/30 02:49:29;;;;;;;2.78;0.73;;;14.40;99.90;;;;;;6308757;22;20532;-80
2022/09/30 02:52:11;;;;;;;3.30;0.90;;;14.40;99.90;;;;;;6308789;22;20000;-80
2022/09/30 02:55:15;;;;;;;1.02;0.90;;;14.40;99.90;;;;;;6281581;22;20011;-80
2022/09/30 02:57:48;;;;;;;1.05;0.50;;;14.40;99.90;;;;;;6281366;22;20493;-80
2022/09/30 03:00:15;;;;;;;2.25;0.90;;;14.40;99.90;;;;;;6308866;22;20023;-80
2022/09/30 03:02:41;;;;;;;1.63;0.88;;;14.40;99.90;;;;;;6308513;22;20011;-79
2022/09/30 03:05:08;;;;;;;2.67;0.80;;;14.40;99.90;;;;;;6281308;22;20465;-80
2022/09/30 03:07:35;;;;;;;0.70;0.63;;;14.50;99.90;;;;;;6308819;22;19999;-80
2022/09/30 03:10:01;;;;;;;2.50;1.00;;;14.50;99.90;;;;;;6281384;22;20054;-79
2022/09/30 03:12:49;;;;;;;0.65;0.65;;;14.50;99.90;;;;;;6281194;22;20011;-80
2022/09/30 03:15:53;;;;;;;0.98;0.85;;;14.50;99.90;;;;;;6281278;22;20342;-80
2022/09/30 03:18:40;;;;;;;1.02;0.60;;;14.50;99.90;;;;;;6308653;22;20463;-79
2022/09/30 03:21:23;;;;;;;2.50;0.73;;;14.50;99.90;;;;;;6308551;22;20003;-79
2022/09/30 03:24:01;;;;;;;3.20;0.88;;;14.50;99.90;;;;;;6281145;22;20003;-80
2022/09/30 03:26:59;;;;;;;2.00;0.80;;;14.50;99.90;;;;;;6308554;22;20045;-80
2022/09/30 03:29:37;;;;;;;2.70;0.80;;;14.60;99.90;;;;;;6280599;22;20000;-80
2022/09/30 03:32:21;;;;;;;4.28;1.05;;;14.60;99.90;;;;;;6308445;22;20032;-80
2022/09/30 03:35:05;;;;;;;1.25;0.77;;;14.70;99.90;;;;;;6308536;22;20006;-80
2022/09/30 03:37:37;;;;;;;0.77;0.77;;;14.70;99.90;;;;;;6281010;22;20074;-80
2022/09/30 03:40:09;;;;;;;1.10;0.75;;;14.60;99.90;;;;;;6308259;22;20003;-80
2022/09/30 03:42:44;;;;;;;2.33;0.90;;;14.70;99.90;;;;;;6280880;22;20056;-80
2022/09/30 03:46:00;;;;;;;1.58;0.70;;;14.60;99.90;;;;;;6280945;22;20508;-80
2022/09/30 03:48:27;;;;;;;0.38;0.38;;;14.60;99.90;;;;;;6183827;23;20076;-80
2022/09/30 03:50:55;;;;;;;1.15;0.80;;;14.60;99.90;;;;;;6183859;23;20342;-80
2022/09/30 03:53:21;;;;;;;0.65;0.47;;;14.50;99.90;;;;;;6244688;22;20003;-80
2022/09/30 03:55:49;;;;;;;4.15;0.60;;;14.50;99.90;;;;;;6280877;22;20011;-80
2022/09/30 03:58:18;;;;;;;1.02;0.50;;;14.50;99.90;;;;;;6280879;22;20014;-80
2022/09/30 04:00:49;;;;;;;6.35;1.15;;;14.50;99.90;;;;;;6308044;22;20011;-79
2022/09/30 04:03:15;;;;;;;1.23;0.60;;;14.60;99.90;;;;;;6280649;22;20098;-80
2022/09/30 04:05:41;;;;;;;1.85;0.50;;;14.60;99.90;;;;;;6308005;22;20427;-80
2022/09/30 04:08:07;;;;;;;0.77;0.68;;;14.50;99.90;;;;;;6308158;22;20377;-80
2022/09/30 04:10:33;;;;;;;0.65;0.60;;;14.50;99.90;;;;;;6308105;22;20078;-80
2022/09/30 04:12:59;;;;;;;3.40;0.90;;;14.50;99.90;;;;;;6280623;22;20057;-80
2022/09/30 04:15:26;;;;;;;2.25;0.68;;;14.50;99.90;;;;;;6308035;22;20003;-80
2022/09/30 04:17:52;;;;;;;2.65;0.70;;;14.40;99.90;;;;;;6280621;22;20458;-80
2022/09/30 04:20:18;;;;;;;0.63;0.55;;;14.40;99.90;;;;;;6280504;22;20033;-80
2022/09/30 04:22:44;;;;;;;1.90;0.65;;;14.40;99.90;;;;;;6307908;22;20431;-80
2022/09/30 04:25:12;;;;;;;2.55;0.70;;;14.40;99.90;;;;;;6280100;22;20054;-80
2022/09/30 04:27:38;;;;;;;2.63;0.80;;;14.40;99.90;;;;;;6307686;22;20068;-79
2022/09/30 04:30:05;;;;;;;4.35;0.88;;;14.30;99.90;;;;;;6307505;22;20471;-80
2022/09/30 04:32:31;;;;;;;1.00;1.00;;;14.30;99.90;;;;;;6307518;22;19999;-80
2022/09/30 04:34:57;;;;;;;2.38;0.90;;;14.40;99.90;;;;;;6280359;22;20016;-80
2022/09/30 04:37:23;;;;;;;1.15;0.93;;;14.40;99.90;;;;;;6307791;22;20003;-79
2022/09/30 04:39:49;;;;;;;0.98;0.70;;;14.50;99.90;;;;;;6280103;22;20159;-80
2022/09/30 04:42:16;;;;;;;5.30;0.80;;;14.50;99.90;;;;;;6307537;22;20019;-79
2022/09/30 04:44:41;;;;;;;2.80;0.82;;;14.50;99.90;;;;;;6280299;22;20003;-80
2022/09/30 04:47:07;;;;;;;1.63;0.88;;;14.50;99.90;;;;;;6307671;22;20026;-80
2022/09/30 04:49:33;;;;;;;2.58;0.47;;;14.50;99.90;;;;;;6307593;22;20327;-80
2022/09/30 04:52:02;;;;;;;1.58;0.60;;;14.50;99.90;;;;;;6307283;22;20027;-80
2022/09/30 04:54:27;;;;;;;2.40;0.77;;;14.50;99.90;;;;;;6280088;22;20014;-79
2022/09/30 04:56:53;;;;;;;0.82;0.82;;;14.50;99.90;;;;;;6307288;22;19999;-80
2022/09/30 04:59:21;;;;;;;0.88;0.88;;;14.50;99.90;;;;;;6279928;22;20498;-80
2022/09/30 05:01:50;;;;;;;2.35;0.85;;;14.50;99.90;;;;;;6307401;22;20007;-80
2022/09/30 05:04:19;;;;;;;0.65;0.60;;;14.50;99.90;;;;;;6307769;22;20007;-80
2022/09/30 05:06:45;;;;;;;0.95;0.45;;;14.50;99.90;;;;;;6280221;22;20517;-80
2022/09/30 05:09:10;;;;;;;1.30;0.80;;;14.60;99.90;;;;;;6307494;22;20037;-79
2022/09/30 05:11:37;;;;;;;0.68;0.68;;;14.60;99.90;;;;;;6280059;22;20007;-80
2022/09/30 05:14:07;;;;;;;1.17;0.60;;;14.60;99.90;;;;;;6280129;22;19999;-80
2022/09/30 05:16:33;;;;;;;2.30;0.80;;;14.60;99.90;;;;;;6279750;22;20007;-80
2022/09/30 05:18:59;;;;;;;2.05;0.85;;;14.50;99.90;;;;;;6307363;22;20074;-80
2022/09/30 05:21:24;;;;;;;1.42;0.70;;;14.50;99.90;;;;;;6279996;22;20371;-80
2022/09/30 05:23:52;;;;;;;0.93;0.75;;;14.50;99.90;;;;;;6280062;22;20567;-80
2022/09/30 05:26:21;;;;;;;0.88;0.80;;;14.40;99.90;;;;;;6279926;22;20449;-80
2022/09/30 05:28:50;;;;;;;2.35;1.00;;;14.50;99.90;;;;;;6307148;22;20006;-80
2022/09/30 05:31:16;;;;;;;1.67;0.88;;;14.40;99.90;;;;;;6279763;22;20090;-80
2022/09/30 05:33:41;;;;;;;2.72;0.77;;;14.50;99.90;;;;;;6307113;22;20073;-79
2022/09/30 05:36:10;;;;;;;0.90;0.70;;;14.50;99.90;;;;;;6306946;22;19999;-80
2022/09/30 05:38:36;;;;;;;0.85;0.85;;;14.50;99.90;;;;;;6279730;22;20082;-80
2022/09/30 05:41:10;;;;;;;2.90;1.00;;;14.50;99.90;;;;;;6306961;22;20368;-80
2022/09/30 05:43:38;;;;;;;1.52;0.90;;;14.40;99.90;;;;;;6279457;22;20006;-80
2022/09/30 05:46:04;;;;;;;0.90;0.85;;;14.40;99.90;;;;;;6307183;22;20382;-79
2022/09/30 05:48:30;;;;;;;1.20;1.10;;;14.40;99.90;;;;;;6307185;22;20030;-80
2022/09/30 05:51:00;;;;;;;1.00;1.00;;;14.40;99.90;;;;;;6279826;22;20013;-80
2022/09/30 05:53:27;;;;;;;1.77;0.73;;;14.50;99.90;;;;;;6306983;22;20443;-79
2022/09/30 05:55:52;;;;;;;3.80;0.80;;;14.40;99.90;;;;;;6279977;22;20036;-79
2022/09/30 05:58:19;;;;;;;3.97;1.10;;;14.40;99.90;;;;;;6307099;22;20049;-79
2022/09/30 06:00:48;;;;;;;3.15;0.88;;;14.50;99.90;;;;;;6279643;22;20003;-80
2022/09/30 06:03:14;;;;;;;0.80;0.80;;;14.50;99.90;;;;;;6306730;22;20011;-80
2022/09/30 06:05:40;;;;;;;0.90;0.90;;;14.50;99.90;;;;;;6279773;22;19996;-80
2022/09/30 06:08:06;;;;;;;2.30;0.90;;;14.50;99.90;;;;;;6306948;22;19995;-79
2022/09/30 06:10:33;;;;;;;2.30;0.90;;;14.60;99.90;;;;;;6279687;22;20007;-79
2022/09/30 06:13:01;;;;;;;0.82;0.82;;;14.60;99.90;;;;;;6279672;22;20003;-79
2022/09/30 06:15:30;;;;;;;1.42;0.85;;;14.70;99.90;;;;;;6307225;22;20327;-80
2022/09/30 06:17:57;;;;;;;3.30;0.68;;;14.70;99.90;;;;;;6307049;22;20074;-79
2022/09/30 06:20:23;;;;;;;2.78;0.90;;;14.70;99.90;;;;;;6279747;22;20316;-80
2022/09/30 06:22:49;;;;;;;2.63;1.15;;;14.80;99.90;;;;;;6307066;22;20026;-80
2022/09/30 06:25:15;;;;;;;2.20;0.90;;;14.80;99.90;;;;;;6279818;22;19999;-79
2022/09/30 06:27:45;;;;;;;2.30;0.82;;;14.90;99.90;;;;;;6279702;22;20004;-80
2022/09/30 06:30:11;;;;;;;1.73;0.82;;;14.90;99.90;;;;;;6307082;22;20072;-80
2022/09/30 06:32:37;;;;;;;6.78;1.40;;;14.90;99.90;;;;;;6307004;22;20479;-80
2022/09/30 06:35:03;;;;;;;1.95;0.80;;;15.00;99.90;;;;;;6279635;22;20007;-80
2022/09/30 06:37:28;;;;;;;1.17;0.70;;;15.00;99.90;;;;;;6279656;22;20003;-80
2022/09/30 06:39:54;;;;;;;1.75;1.00;;;15.00;99.90;;;;;;6306891;22;20000;-80
2022/09/30 06:42:23;;;;;;;2.53;0.90;;;15.00;99.90;;;;;;6306775;22;20312;-80
2022/09/30 06:44:50;;;;;;;1.60;0.82;;;15.00;99.90;;;;;;6279656;22;20090;-80
2022/09/30 06:47:16;;;;;;;4.13;1.02;;;14.90;99.90;;;;;;6279708;22;20042;-80
2022/09/30 06:49:42;;;;;;;1.63;0.90;;;15.00;99.90;;;;;;6306986;22;20004;-80
2022/09/30 06:52:11;;;;;;;8.25;1.05;;;15.00;99.90;;;;;;6306968;22;20327;-81
2022/09/30 06:54:41;;;;;;;2.05;1.00;;;15.10;99.90;;;;;;6279611;22;20007;-79
2022/09/30 06:57:07;;;;;;;1.23;0.60;;;15.50;99.90;;;;;;6279550;22;20464;-79
2022/09/30 06:59:32;;;;;;;1.52;0.57;;;15.50;99.90;;;;;;6306816;22;20082;-79
2022/09/30 07:01:58;;;;;;;1.63;0.75;;;15.40;99.90;;;;;;6306685;22;20488;-79
2022/09/30 07:04:24;;;;;;;0.80;0.65;;;15.40;99.90;;;;;;6279706;22;19999;-79
2022/09/30 07:06:49;;;;;;;0.70;0.57;;;15.40;99.90;;;;;;6281640;22;20685;-79
2022/09/30 07:09:15;;;;;;;1.98;0.70;;;15.40;99.90;;;;;;6308857;22;20056;-79
2022/09/30 07:11:41;;;;;;;2.80;0.88;;;15.50;99.90;;;;;;6280994;22;20096;-78
2022/09/30 07:14:12;;;;;;;1.05;0.60;;;15.50;99.90;;;;;;6281490;22;20094;-79
2022/09/30 07:16:38;;;;;;;2.75;0.80;;;15.60;99.90;;;;;;6281295;22;20003;-79
2022/09/30 07:19:08;;;;;;;0.80;0.50;;;15.60;99.90;;;;;;6281168;22;20007;-79
2022/09/30 07:21:34;;;;;;;0.60;0.60;;;15.70;99.90;;;;;;6280971;22;20386;-78
2022/09/30 07:24:00;;;;;;;1.42;0.57;;;15.60;99.90;;;;;;6308636;22;19995;-78
2022/09/30 07:26:26;;;;;;;1.67;0.82;;;15.70;99.90;;;;;;6308733;22;20435;-78
2022/09/30 07:28:52;;;;;;;1.17;0.63;;;15.70;99.90;;;;;;6281147;22;19999;-77
2022/09/30 07:31:24;;;;;;;2.08;0.70;;;15.70;99.90;;;;;;6308512;22;20005;-78
2022/09/30 07:33:50;;;;;;;1.57;0.87;;;15.70;99.90;;;;;;6308599;22;20042;-79
2022/09/30 07:36:17;;;;;;;0.82;0.82;;;15.80;99.90;;;;;;6308424;22;20006;-79
2022/09/30 07:38:44;;;;;;;0.82;0.50;;;15.80;99.90;;;;;;6280936;22;19999;-79
2022/09/30 07:41:16;;;;;;;0.60;0.60;;;15.80;99.90;;;;;;6308528;22;20006;-79
2022/09/30 07:43:43;;;;;;;1.30;0.60;;;15.80;99.90;;;;;;6281225;22;20331;-79
2022/09/30 07:46:23;;;;;;;1.35;0.90;;;15.90;99.90;;;;;;6308344;22;19995;-78
2022/09/30 07:48:50;;;;;;;1.48;0.60;;;16.00;99.90;;;;;;6308438;22;20462;-79
2022/09/30 07:51:32;;;;;;;0.82;0.82;;;16.00;99.90;;;;;;6308358;22;20023;-79
2022/09/30 07:54:06;;;;;;;1.13;0.67;;;16.10;99.90;;;;;;6308375;22;20022;-78
2022/09/30 07:56:32;;;;;;;2.35;0.90;;;16.20;99.90;;;;;;6308172;22;20304;-78
2022/09/30 07:59:00;;;;;;;2.42;0.57;;;16.20;99.90;;;;;;6280663;22;19999;-78
2022/09/30 08:01:33;;;;;;;1.95;1.00;;;16.30;99.90;;;;;;6307944;22;20003;-78
2022/09/30 08:04:02;;;;;;;2.25;0.82;;;16.30;99.90;;;;;;6275306;22;20094;-78
2022/09/30 08:06:29;;;;;;;6.32;0.80;;;16.40;99.90;;;;;;6275736;22;20007;-78
2022/09/30 08:08:57;;;;;;;0.82;0.75;;;16.50;99.90;;;;;;6275817;22;20003;-79
2022/09/30 08:11:23;;;;;;;5.78;0.50;;;16.50;99.90;;;;;;6275604;22;20422;-79
2022/09/30 08:13:51;;;;;;;1.10;0.75;;;16.50;99.90;;;;;;6277231;22;20075;-79
2022/09/30 08:16:17;;;;;;;1.33;0.80;;;16.60;99.90;;;;;;6277077;22;20024;-78
2022/09/30 08:18:43;;;;;;;1.95;0.70;;;16.60;99.90;;;;;;6275590;22;20083;-79
2022/09/30 08:21:08;;;;;;;2.50;0.82;;;16.60;99.90;;;;;;6276930;22;20031;-79
2022/09/30 08:23:34;;;;;;;5.60;0.80;;;16.60;99.90;;;;;;6277025;22;19999;-79
2022/09/30 08:26:09;;;;;;;2.67;0.80;;;16.70;99.90;;;;;;6275577;22;20004;-78
2022/09/30 08:28:36;;;;;;;1.35;0.70;;;16.70;99.90;;;;;;6275558;22;20000;-78
2022/09/30 08:31:10;;;;;;;1.00;0.80;;;16.70;99.90;;;;;;6277054;22;20003;-78
2022/09/30 08:33:37;;;;;;;1.45;0.80;;;16.80;99.90;;;;;;6275580;22;20011;-78
2022/09/30 08:36:14;;;;;;;0.68;0.68;;;16.80;99.90;;;;;;6277058;22;20003;-79
2022/09/30 08:38:40;;;;;;;3.92;0.75;;;16.90;99.90;;;;;;6275354;22;20078;-78
2022/09/30 08:41:36;;;;;;;1.17;0.50;;;16.90;99.90;;;;;;6275031;22;20431;-79
2022/09/30 08:44:13;;;;;;;1.15;0.68;;;17.00;99.90;;;;;;6276957;22;20019;-79
2022/09/30 08:47:07;;;;;;;1.80;1.10;;;17.00;99.90;;;;;;6275288;22;20004;-79
2022/09/30 08:49:45;;;;;;;3.78;1.10;;;17.10;99.90;;;;;;6275486;22;20003;-79
2022/09/30 08:52:16;;;;;;;3.72;1.25;;;17.20;99.90;;;;;;6276750;22;20488;-79
2022/09/30 08:54:46;;;;;;;2.63;1.13;;;17.20;99.90;;;;;;6276836;22;19999;-79
2022/09/30 08:57:12;;;;;;;4.18;1.50;;;17.20;99.90;;;;;;6275120;22;20396;-79
2022/09/30 08:59:45;;;;;;;5.20;1.45;;;17.20;99.90;;;;;;6276586;22;20039;-79
2022/09/30 09:02:20;;;;;;;4.60;2.42;;;17.20;99.90;;;;;;6282267;22;20030;-79
2022/09/30 09:04:48;;;;;;;2.90;2.28;;;17.20;99.90;;;;;;6280248;22;20086;-79
2022/09/30 09:07:32;;;;;;;4.97;2.42;;;17.20;99.90;;;;;;6307676;22;20430;-79
2022/09/30 09:10:22;;;;;;;4.65;3.03;;;17.30;99.90;;;;;;6307464;22;20375;-79
2022/09/30 09:13:09;;;;;;;5.45;2.05;;;17.30;99.90;;;;;;6307324;22;20003;-79
2022/09/30 09:15:49;;;;;;;5.10;2.40;;;17.40;99.90;;;;;;6280287;22;19999;-79
2022/09/30 09:18:37;;;;;;;4.43;1.80;;;17.40;99.90;;;;;;6307533;22;20003;-79
2022/09/30 09:21:17;;;;;;;2.35;1.48;;;17.50;99.90;;;;;;6279708;22;20010;-79
2022/09/30 09:23:43;;;;;;;6.00;1.65;;;17.60;99.90;;;;;;6278457;22;20554;-79
2022/09/30 09:26:13;;;;;;;2.47;1.48;;;17.60;99.90;;;;;;6306175;22;20034;-78
2022/09/30 09:28:45;;;;;;;1.42;1.30;;;17.60;99.90;;;;;;6306903;22;20338;-79
2022/09/30 09:31:15;;;;;;;2.47;1.48;;;17.70;99.90;;;;;;6307151;22;20008;-79
2022/09/30 09:33:42;;;;;;;3.13;1.83;;;17.70;99.90;;;;;;6307287;22;20003;-79
2022/09/30 09:36:57;;;;;;;3.45;1.40;;;17.70;99.90;;;;;;6280061;22;20031;-78
2022/09/30 09:39:54;;;;;;;7.03;1.77;;;17.70;99.90;;;;;;6157713;23;20005;-78
2022/09/30 09:42:38;;;;;;;3.30;1.63;;;17.70;99.90;;;;;;6279865;22;20006;-79
2022/09/30 09:45:34;;;;;;;3.38;1.90;;;17.70;99.90;;;;;;6307266;22;19999;-78
2022/09/30 09:48:00;;;;;;;5.05;2.08;;;17.80;99.90;;;;;;6307155;22;19999;-78
2022/09/30 09:50:53;;;;;;;3.38;1.88;;;17.80;99.90;;;;;;6307113;22;20003;-79
2022/09/30 09:53:38;;;;;;;6.03;2.08;;;17.80;99.90;;;;;;6306999;22;20026;-78
2022/09/30 09:56:19;;;;;;;4.30;2.17;;;17.80;99.90;;;;;;6307234;22;20458;-78
2022/09/30 09:59:16;;;;;;;2.22;1.98;;;17.80;99.90;;;;;;6307129;22;20015;-78
2022/09/30 10:01:43;;;;;;;3.38;2.10;;;17.80;99.90;;;;;;6279853;22;20011;-79
2022/09/30 10:04:24;;;;;;;3.80;2.10;;;17.80;99.90;;;;;;6279846;22;20012;-78
2022/09/30 10:07:01;;;;;;;6.85;2.25;;;17.80;99.90;;;;;;6279669;22;20369;-78
2022/09/30 10:09:39;;;;;;;4.72;1.85;;;17.80;99.90;;;;;;6280026;22;20056;-78
2022/09/30 10:12:04;;;;;;;2.53;2.33;;;17.80;99.90;;;;;;6307018;22;19999;-78
2022/09/30 10:14:34;;;;;;;3.92;2.17;;;17.80;99.90;;;;;;6279748;22;20010;-79
2022/09/30 10:17:04;;;;;;;3.38;2.28;;;17.80;99.90;;;;;;6307229;22;20064;-79
2022/09/30 10:19:32;;;;;;;3.92;2.25;;;17.80;99.90;;;;;;6306975;22;20087;-79
2022/09/30 10:22:07;;;;;;;4.55;2.17;;;17.80;99.90;;;;;;6279598;22;20087;-79
2022/09/30 10:24:35;;;;;;;4.78;2.50;;;17.80;99.90;;;;;;6307163;22;20023;-79
2022/09/30 10:27:01;;;;;;;5.18;2.58;;;17.80;99.90;;;;;;6279606;22;20082;-79
2022/09/30 10:29:33;;;;;;;5.20;2.47;;;17.80;99.90;;;;;;6307093;22;20003;-79
2022/09/30 10:32:01;;;;;;;2.90;2.10;;;17.80;99.90;;;;;;6306922;22;20003;-79
2022/09/30 10:34:34;;;;;;;3.45;2.63;;;17.90;99.90;;;;;;6307146;22;20011;-79
2022/09/30 10:37:06;;;;;;;4.68;1.77;;;17.90;99.90;;;;;;6307132;22;20072;-79
2022/09/30 10:39:41;;;;;;;3.70;1.88;;;17.80;99.90;;;;;;6308077;22;19999;-79
2022/09/30 10:42:20;;;;;;;2.60;1.60;;;17.90;99.90;;;;;;6309043;22;20007;-79
2022/09/30 10:44:52;;;;;;;1.95;1.73;;;17.80;99.90;;;;;;6281645;22;20349;-79
2022/09/30 10:47:25;;;;;;;2.10;1.58;;;17.90;99.90;;;;;;6309191;22;20074;-79
2022/09/30 10:50:07;;;;;;;4.68;2.13;;;17.90;99.90;;;;;;6309006;22;20006;-79
2022/09/30 10:52:55;;;;;;;4.63;1.95;;;17.90;99.90;;;;;;6308900;22;20454;-79
2022/09/30 10:55:21;;;;;;;5.45;1.98;;;17.90;99.90;;;;;;6308836;22;20006;-79
2022/09/30 10:57:50;;;;;;;3.08;1.70;;;18.00;99.90;;;;;;6281433;22;20011;-76
2022/09/30 11:00:21;;;;;;;2.08;1.52;;;18.00;99.90;;;;;;6281441;22;20007;-79
2022/09/30 11:03:05;;;;;;;1.60;1.50;;;18.00;99.90;;;;;;6308574;22;20014;-79
2022/09/30 11:05:39;;;;;;;1.58;1.35;;;18.00;99.90;;;;;;6308733;22;20003;-79
2022/09/30 11:08:37;;;;;;;2.95;1.60;;;17.90;99.90;;;;;;6281370;22;20439;-79
2022/09/30 11:11:13;;;;;;;3.15;1.38;;;18.00;99.90;;;;;;6308678;22;19999;-79
2022/09/30 11:13:42;;;;;;;2.70;1.90;;;17.90;99.90;;;;;;6281433;22;20031;-79
2022/09/30 11:16:07;;;;;;;2.60;1.60;;;18.00;99.90;;;;;;6281338;22;20011;-79
2022/09/30 11:18:56;;;;;;;4.82;2.00;;;18.00;99.90;;;;;;6308645;22;20473;-79
2022/09/30 11:21:47;;;;;;;2.13;1.48;;;18.00;99.90;;;;;;6308367;22;20003;-78
2022/09/30 11:24:13;;;;;;;1.60;1.50;;;18.00;99.90;;;;;;6308542;22;20431;-79
2022/09/30 11:26:48;;;;;;;2.00;1.75;;;17.90;99.90;;;;;;6281073;22;20003;-79
2022/09/30 11:29:39;;;;;;;5.28;2.08;;;17.90;99.90;;;;;;6280646;22;20331;-79
2022/09/30 11:32:04;;;;;;;5.00;2.58;;;17.90;99.90;;;;;;6308297;22;20026;-79
2022/09/30 11:34:52;;;;;;;2.72;2.53;;;17.80;99.90;;;;;;6308558;22;19999;-79
2022/09/30 11:37:47;;;;;;;5.10;2.92;;;17.90;99.90;;;;;;6308449;22;20078;-79
2022/09/30 11:40:34;;;;;;;2.65;2.47;;;17.90;99.90;;;;;;6308368;22;20000;-79
2022/09/30 11:43:18;;;;;;;5.40;3.03;;;17.90;99.90;;;;;;6308295;22;19995;-79
2022/09/30 11:46:08;;;;;;;4.45;2.58;;;17.90;99.90;;;;;;6308413;22;20002;-79
2022/09/30 11:49:00;;;;;;;3.20;2.40;;;17.90;99.90;;;;;;6308217;22;20334;-79
2022/09/30 11:51:46;;;;;;;3.87;2.27;;;18.00;99.90;;;;;;6307692;22;20450;-79
2022/09/30 11:54:15;;;;;;;3.22;2.00;;;18.00;99.90;;;;;;6280779;22;20027;-79
2022/09/30 11:56:58;;;;;;;3.33;2.25;;;18.00;99.90;;;;;;6280858;22;20003;-79
2022/09/30 11:59:33;;;;;;;2.67;2.20;;;18.00;99.90;;;;;;6280647;22;20003;-79
2022/09/30 12:02:02;;;;;;;5.35;1.63;;;18.00;99.90;;;;;;6308048;22;19999;-78
2022/09/30 12:04:40;;;;;;;4.20;2.03;;;18.00;99.90;;;;;;6280675;22;20312;-78
2022/09/30 12:07:27;;;;;;;4.00;2.00;;;18.00;99.90;;;;;;6308131;22;20006;-78
2022/09/30 12:10:00;;;;;;;3.35;2.28;;;18.00;99.90;;;;;;6308135;22;20082;-78
2022/09/30 12:12:25;;;;;;;3.65;2.30;;;18.00;99.90;;;;;;6280791;22;20007;-78
2022/09/30 12:15:01;;;;;;;3.95;3.55;;;17.80;99.90;;;;;;6308093;22;20431;-78
2022/09/30 12:17:35;;;;;;;7.13;2.63;;;17.90;99.90;;;;;;6280833;22;20077;-78
2022/09/30 12:20:15;;;;;;;3.80;2.55;;;17.90;99.90;;;;;;6280912;22;20389;-78
2022/09/30 12:22:44;;;;;;;4.80;2.95;;;17.90;99.90;;;;;;6308070;22;20331;-78
2022/09/30 12:25:15;;;;;;;4.38;2.85;;;17.90;99.90;;;;;;6308053;22;20007;-78
2022/09/30 12:27:57;;;;;;;3.72;2.60;;;17.80;99.90;;;;;;6307828;22;20002;-77
2022/09/30 12:30:24;;;;;;;;;;;17.80;99.90;;;;;;6308457;22;20049;-78
2022/09/30 12:33:09;;;;;;;5.28;2.10;;;17.70;99.90;;;;;;6307806;22;19898;-78
2022/09/30 12:35:48;;;;;;;2.50;2.30;;;17.60;99.90;;;;;;6280823;22;20003;-78
2022/09/30 12:38:26;;;;;;;3.17;2.58;;;17.60;99.90;;;;;;6307943;22;19999;-78
2022/09/30 12:41:29;;;;;;;2.72;2.53;;;17.60;99.90;;;;;;6307798;22;20034;-78
2022/09/30 12:44:07;;;;;;;5.07;2.95;;;17.50;99.90;;;;;;6183002;23;20028;-78
2022/09/30 12:46:50;;;;;;;4.35;2.90;;;17.40;99.90;;;;;;6270941;22;20003;-78
2022/09/30 12:49:20;;;;;;;5.55;2.83;;;17.40;99.90;;;;;;6307817;22;20369;-78
2022/09/30 12:51:52;;;;;;;6.22;2.67;;;17.40;99.90;;;;;;6280344;22;20003;-78
2022/09/30 12:54:29;;;;;;;4.97;3.17;;;17.30;99.90;;;;;;6280372;22;20011;-79
2022/09/30 12:57:00;;;;;;;3.33;2.85;;;17.30;99.90;;;;;;6306636;22;20081;-79
2022/09/30 12:59:38;;;;;;;5.70;3.00;;;17.30;99.90;;;;;;6306371;22;19999;-79
2022/09/30 13:02:06;;;;;;;5.57;3.70;;;17.30;99.90;;;;;;6306770;22;19995;-79
2022/09/30 13:04:44;;;;;;;3.50;3.20;;;17.30;99.90;;;;;;6279910;22;20485;-79
2022/09/30 13:07:10;;;;;;;4.85;3.78;;;17.30;99.90;;;;;;6307337;22;20018;-79
2022/09/30 13:09:53;;;;;;;4.22;3.85;;;17.20;99.90;;;;;;6307396;22;20428;-78
2022/09/30 13:12:38;;;;;;;8.80;4.13;;;17.20;99.90;;;;;;6307324;22;19999;-79
2022/09/30 13:15:27;;;;;;;5.40;4.07;;;17.20;99.90;;;;;;6307697;22;20007;-78
2022/09/30 13:17:53;;;;;;;6.47;4.22;;;17.20;99.90;;;;;;6305335;22;20007;-79
2022/09/30 13:20:49;;;;;;;5.28;4.55;;;17.20;99.90;;;;;;6307433;22;20382;-79
2022/09/30 13:23:34;;;;;;;7.93;4.93;;;17.20;99.90;;;;;;6307497;22;19999;-78